Time;durP1;ratioP1;P1;durP2;ratioP2;P2;SDS_P1;SDS_P2;PMS_P1;PMS_P2;Temp;Humidity;BMP_temperature;BMP_pressure;BME280_temperature;BME280_humidity;BME280_pressure;Samples;Min_cycle;Max_cycle;Signal;HPM_P1;HPM_P2
2020/12/03 00:01:20;;;;;;;;;;;;;;;15.68;72.67;101771.94;4976970;28;984;-53
2020/12/03 00:03:48;;;;;;;;;;;;;;;15.68;73.15;101779.94;4977068;28;1890;-53
2020/12/03 00:06:21;;;;;;;;;;;;;;;15.70;72.44;101774.53;4976785;28;983;-53
2020/12/03 00:08:50;;;;;;;;;;;;;;;15.65;72.87;101788.13;4976894;28;866;-53
2020/12/03 00:11:15;;;;;;;;;;;;;;;15.68;72.25;101787.09;4977027;28;874;-53
2020/12/03 00:13:40;;;;;;;;;;;;;;;15.68;72.37;101792.44;4977105;28;802;-53
2020/12/03 00:16:06;;;;;;;;;;;;;;;15.66;72.24;101795.19;4976555;28;1710;-54
2020/12/03 00:18:33;;;;;;;;;;;;;;;15.65;72.84;101804.09;4976707;28;906;-53
2020/12/03 00:20:59;;;;;;;;;;;;;;;15.65;72.74;101803.25;4976875;28;790;-53
2020/12/03 00:23:24;;;;;;;;;;;;;;;15.62;73.06;101808.78;4977370;28;1967;-53
2020/12/03 00:25:50;;;;;;;;;;;;;;;15.56;72.61;101799.31;4976743;28;814;-53
2020/12/03 00:28:16;;;;;;;;;;;;;;;15.56;72.50;101798.44;4976758;28;774;-53
2020/12/03 00:30:41;;;;;;;;;;;;;;;15.57;72.66;101792.19;4976522;28;927;-53
2020/12/03 00:33:10;;;;;;;;;;;;;;;15.56;72.75;101803.78;4976435;28;846;-53
2020/12/03 00:35:35;;;;;;;;;;;;;;;15.56;72.69;101798.44;4976376;28;971;-53
2020/12/03 00:38:00;;;;;;;;;;;;;;;15.57;72.58;101795.69;4976264;28;940;-53
2020/12/03 00:40:25;;;;;;;;;;;;;;;15.58;72.49;101780.56;4976360;28;865;-53
2020/12/03 00:42:55;;;;;;;;;;;;;;;15.59;72.49;101795.63;4976418;28;1886;-53
2020/12/03 00:45:20;;;;;;;;;;;;;;;15.58;72.57;101785.88;4976175;28;837;-53
2020/12/03 00:47:45;;;;;;;;;;;;;;;15.50;72.30;101795.19;4976417;28;778;-53
2020/12/03 00:50:12;;;;;;;;;;;;;;;15.50;72.34;101795.19;4976108;28;810;-53
2020/12/03 00:52:37;;;;;;;;;;;;;;;15.50;73.02;101792.53;4976083;28;969;-53
2020/12/03 00:55:04;;;;;;;;;;;;;;;15.54;72.34;101792.34;4976035;28;972;-53
2020/12/03 00:57:29;;;;;;;;;;;;;;;15.50;73.28;101783.69;4975970;28;945;-53
2020/12/03 00:59:54;;;;;;;;;;;;;;;15.52;72.97;101795.97;4975907;28;937;-53
2020/12/03 01:02:20;;;;;;;;;;;;;;;15.49;73.18;101788.13;4975931;28;1891;-53
2020/12/03 01:04:45;;;;;;;;;;;;;;;15.54;72.65;101797.66;4975855;28;849;-53
2020/12/03 01:07:10;;;;;;;;;;;;;;;15.55;72.62;101786.06;4975767;28;971;-53
2020/12/03 01:09:36;;;;;;;;;;;;;;;15.50;72.64;101773.03;4975745;28;912;-53
2020/12/03 01:12:03;;;;;;;;;;;;;;;15.49;72.82;101772.13;4975699;28;902;-53
2020/12/03 01:14:28;;;;;;;;;;;;;;;15.52;71.94;101771.97;4975587;28;873;-53
2020/12/03 01:16:53;;;;;;;;;;;;;;;15.49;72.42;101760.63;4975465;28;987;-53
2020/12/03 01:19:18;;;;;;;;;;;;;;;15.48;72.42;101759.78;4975509;28;976;-53
2020/12/03 01:21:44;;;;;;;;;;;;;;;15.45;72.28;101751.94;4975791;28;775;-53
2020/12/03 01:24:09;;;;;;;;;;;;;;;15.49;72.34;101766.81;4975700;28;1922;-53
2020/12/03 01:26:34;;;;;;;;;;;;;;;15.48;72.82;101754.44;4975695;28;866;-53
2020/12/03 01:28:59;;;;;;;;;;;;;;;15.48;72.52;101753.59;4975581;28;869;-53
2020/12/03 01:31:25;;;;;;;;;;;;;;;15.44;72.30;101768.03;4975360;28;962;-53
2020/12/03 01:33:50;;;;;;;;;;;;;;;15.45;73.36;101754.59;4975349;28;909;-53
2020/12/03 01:36:15;;;;;;;;;;;;;;;15.47;72.57;101763.38;4975606;28;842;-53
2020/12/03 01:38:43;;;;;;;;;;;;;;;15.44;72.43;101752.06;4975479;28;881;-53
2020/12/03 01:41:09;;;;;;;;;;;;;;;15.38;73.20;101747.94;4975939;28;849;-53
2020/12/03 01:43:39;;;;;;;;;;;;;;;15.36;73.08;101747.16;4975282;28;1894;-53
2020/12/03 01:46:04;;;;;;;;;;;;;;;15.39;72.48;101760.28;4974494;28;880;-53
2020/12/03 01:48:48;;;;;;;;;;;;;;;15.37;72.51;101740.00;4975090;28;1000;-53
2020/12/03 01:51:25;;;;;;;;;;;;;;;15.38;72.85;101739.94;4975007;28;906;-53
2020/12/03 01:53:55;;;;;;;;;;;;;;;15.43;72.48;101735.19;4975313;28;803;-53
2020/12/03 01:56:35;;;;;;;;;;;;;;;15.40;72.75;101732.72;4974939;28;979;-53
2020/12/03 01:59:01;;;;;;;;;;;;;;;15.40;72.60;101735.38;4975616;28;1644;-53
2020/12/03 02:01:27;;;;;;;;;;;;;;;15.35;72.35;101742.75;4975161;28;831;-54
2020/12/03 02:03:52;;;;;;;;;;;;;;;15.36;73.33;101722.28;4975007;28;1906;-53
2020/12/03 02:06:20;;;;;;;;;;;;;;;15.35;73.01;101721.44;4974682;28;854;-53
2020/12/03 02:08:45;;;;;;;;;;;;;;;15.37;72.42;101730.19;4975159;28;826;-53
2020/12/03 02:11:10;;;;;;;;;;;;;;;15.36;72.36;101743.59;4974881;28;1033;-53
2020/12/03 02:13:36;;;;;;;;;;;;;;;15.36;73.03;101720.50;4974716;28;1132;-53
2020/12/03 02:16:02;;;;;;;;;;;;;;;15.37;72.67;101724.03;4974575;28;1189;-53
2020/12/03 02:18:27;;;;;;;;;;;;;;;15.34;72.66;101711.75;4975557;28;889;-53
2020/12/03 02:20:52;;;;;;;;;;;;;;;15.36;73.10;101720.50;4974645;28;1118;-53
2020/12/03 02:23:17;;;;;;;;;;;;;;;15.38;72.97;101715.06;4974703;28;1914;-53
2020/12/03 02:25:43;;;;;;;;;;;;;;;15.34;72.44;101709.06;4974864;28;874;-53
2020/12/03 02:28:08;;;;;;;;;;;;;;;15.33;72.91;101707.34;4975477;28;1643;-53
2020/12/03 02:30:33;;;;;;;;;;;;;;;15.36;72.14;101704.50;4974971;28;853;-53
2020/12/03 02:32:59;;;;;;;;;;;;;;;15.37;72.41;101703.56;4974891;28;822;-53
2020/12/03 02:35:24;;;;;;;;;;;;;;;15.34;72.33;101708.19;4974921;28;844;-53
2020/12/03 02:37:49;;;;;;;;;;;;;;;15.36;72.66;101698.31;4974777;28;855;-53
2020/12/03 02:40:14;;;;;;;;;;;;;;;15.36;72.59;101695.63;4974820;28;779;-53
2020/12/03 02:42:40;;;;;;;;;;;;;;;15.34;72.86;101695.75;4974474;28;1983;-53
2020/12/03 02:45:05;;;;;;;;;;;;;;;15.33;72.18;101696.69;4989485;28;858;-53
2020/12/03 02:47:30;;;;;;;;;;;;;;;15.32;72.75;101700.31;4974479;28;882;-53
2020/12/03 02:49:56;;;;;;;;;;;;;;;15.29;72.69;101695.16;4974420;28;861;-53
2020/12/03 02:52:22;;;;;;;;;;;;;;;15.31;72.59;101693.25;4974759;28;906;-53
2020/12/03 02:54:47;;;;;;;;;;;;;;;15.29;73.08;101684.50;4975573;28;814;-53
2020/12/03 02:57:13;;;;;;;;;;;;;;;15.28;72.54;101696.09;4977124;28;874;-53
2020/12/03 02:59:38;;;;;;;;;;;;;;;15.25;72.80;101691.78;4978407;28;819;-53
2020/12/03 03:02:04;;;;;;;;;;;;;;;15.26;72.50;101692.66;4978249;28;1358;-54
2020/12/03 03:04:29;;;;;;;;;;;;;;;15.26;72.15;101689.97;4978239;28;1965;-53
2020/12/03 03:06:55;;;;;;;;;;;;;;;15.25;72.41;101690.94;4977963;28;861;-53
2020/12/03 03:09:21;;;;;;;;;;;;;;;15.26;72.33;101697.97;4978019;28;856;-53
2020/12/03 03:14:48;;;;;;;;;;;;;;;15.25;72.63;101702.44;4978662;28;905;-54
2020/12/03 03:17:13;;;;;;;;;;;;;;;15.23;72.51;101700.84;4977848;28;1158;-53
2020/12/03 03:19:39;;;;;;;;;;;;;;;15.22;72.58;101707.97;4977776;28;992;-53
2020/12/03 03:22:04;;;;;;;;;;;;;;;15.26;72.42;101700.63;4978064;28;897;-53
2020/12/03 03:24:29;;;;;;;;;;;;;;;15.24;72.27;101687.44;4977937;28;2025;-53
2020/12/03 03:26:55;;;;;;;;;;;;;;;15.25;72.37;101697.13;4978062;28;866;-53
2020/12/03 03:29:20;;;;;;;;;;;;;;;15.25;72.17;101712.25;4977910;28;782;-53
2020/12/03 03:31:45;;;;;;;;;;;;;;;15.22;72.81;101699.97;4977868;28;850;-53
2020/12/03 03:34:11;;;;;;;;;;;;;;;15.23;72.73;101695.50;4977501;28;1042;-53
2020/12/03 03:36:36;;;;;;;;;;;;;;;15.23;72.44;101700.84;4977887;28;861;-53
2020/12/03 03:39:03;;;;;;;;;;;;;;;15.22;72.69;101684.00;4977675;28;862;-53
2020/12/03 03:41:28;;;;;;;;;;;;;;;15.21;72.52;101695.59;4977388;28;889;-53
2020/12/03 03:43:55;;;;;;;;;;;;;;;15.24;72.73;101691.88;4977593;28;1882;-53
2020/12/03 03:46:20;;;;;;;;;;;;;;;15.22;72.58;101683.09;4977594;28;817;-53
2020/12/03 03:48:45;;;;;;;;;;;;;;;15.18;73.15;101681.56;4977556;28;857;-53
2020/12/03 03:51:11;;;;;;;;;;;;;;;15.20;72.62;101671.69;4977436;28;810;-53
2020/12/03 03:53:36;;;;;;;;;;;;;;;15.24;72.43;101683.88;4977443;28;786;-53
2020/12/03 03:56:02;;;;;;;;;;;;;;;15.25;72.85;101693.59;4977124;28;873;-53
2020/12/03 03:58:27;;;;;;;;;;;;;;;15.24;72.24;101697.19;4977419;28;827;-53
2020/12/03 04:00:52;;;;;;;;;;;;;;;15.20;72.70;101696.53;4977324;28;803;-53
2020/12/03 04:03:19;;;;;;;;;;;;;;;15.20;72.76;101682.34;4977083;28;1891;-54
2020/12/03 04:05:45;;;;;;;;;;;;;;;15.19;72.17;101699.28;4977099;28;822;-53
2020/12/03 04:08:11;;;;;;;;;;;;;;;15.18;72.74;101670.91;4976277;28;893;-54
2020/12/03 04:10:38;;;;;;;;;;;;;;;15.23;72.28;101677.69;4976860;28;905;-53
2020/12/03 04:13:04;;;;;;;;;;;;;;;15.16;72.63;101672.81;4977143;28;874;-53
2020/12/03 04:15:29;;;;;;;;;;;;;;;15.16;72.43;101670.16;4992056;28;870;-54
2020/12/03 04:17:54;;;;;;;;;;;;;;;15.15;72.49;101677.28;4976664;28;1304;-53
2020/12/03 04:20:19;;;;;;;;;;;;;;;15.18;72.45;101665.59;4976998;28;874;-53
2020/12/03 04:22:45;;;;;;;;;;;;;;;15.16;72.51;101675.47;4976906;28;1919;-53
2020/12/03 04:25:10;;;;;;;;;;;;;;;15.14;72.31;101680.91;4976631;28;884;-53
2020/12/03 04:27:36;;;;;;;;;;;;;;;15.16;72.58;101691.47;4976528;28;825;-53
2020/12/03 04:30:02;;;;;;;;;;;;;;;15.14;72.35;101686.25;4976836;28;914;-53
2020/12/03 04:32:28;;;;;;;;;;;;;;;15.14;72.83;101677.38;4976826;28;865;-53
2020/12/03 04:34:53;;;;;;;;;;;;;;;15.18;72.76;101681.56;4976713;28;842;-53
2020/12/03 04:37:18;;;;;;;;;;;;;;;15.17;72.33;101679.88;4976394;28;863;-53
2020/12/03 04:39:43;;;;;;;;;;;;;;;15.15;72.65;101676.44;4976315;28;896;-53
2020/12/03 04:42:20;;;;;;;;;;;;;;;15.13;72.15;101679.19;4976558;28;823;-53
2020/12/03 04:44:46;;;;;;;;;;;;;;;15.14;72.77;101670.25;4976445;28;1946;-53
2020/12/03 04:47:23;;;;;;;;;;;;;;;15.15;72.34;101671.09;4976259;28;833;-53
2020/12/03 04:49:57;;;;;;;;;;;;;;;15.15;72.77;101671.09;4976383;28;897;-54
2020/12/03 04:52:38;;;;;;;;;;;;;;;15.14;72.21;101672.03;4976341;28;871;-53
2020/12/03 04:55:26;;;;;;;;;;;;;;;15.14;72.67;101674.69;4976034;28;993;-53
2020/12/03 04:58:10;;;;;;;;;;;;;;;15.13;72.83;101673.00;4970708;28;2107;-53
2020/12/03 05:00:35;;;;;;;;;;;;;;;15.13;72.22;101662.34;4976213;28;819;-53
2020/12/03 05:03:03;;;;;;;;;;;;;;;15.14;72.12;101674.69;4975961;28;1883;-53
2020/12/03 05:05:38;;;;;;;;;;;;;;;15.14;72.45;101669.38;4976094;28;811;-53
2020/12/03 05:08:07;;;;;;;;;;;;;;;15.14;72.03;101650.72;4976084;28;835;-53
2020/12/03 05:10:45;;;;;;;;;;;;;;;15.10;72.27;101658.91;4976075;28;857;-53
2020/12/03 05:13:21;;;;;;;;;;;;;;;15.10;72.58;101676.72;4975705;28;885;-53
2020/12/03 05:15:47;;;;;;;;;;;;;;;15.13;72.13;101673.84;4975574;28;817;-53
2020/12/03 05:18:21;;;;;;;;;;;;;;;15.11;72.06;101660.63;4975491;28;1205;-53
2020/12/03 05:20:57;;;;;;;;;;;;;;;15.09;72.46;101667.84;4974987;28;834;-53
2020/12/03 05:23:27;;;;;;;;;;;;;;;15.10;72.64;101669.56;4975464;28;1906;-53
2020/12/03 05:25:53;;;;;;;;;;;;;;;15.13;72.30;101657.88;4975399;28;944;-53
2020/12/03 05:28:21;;;;;;;;;;;;;;;15.14;72.65;101664.03;4975447;28;870;-53
2020/12/03 05:30:49;;;;;;;;;;;;;;;15.15;72.34;101649.78;4975698;28;799;-53
2020/12/03 05:33:14;;;;;;;;;;;;;;;15.09;72.32;101665.16;4975335;28;908;-53
2020/12/03 05:35:40;;;;;;;;;;;;;;;15.07;72.34;101653.75;4975608;28;930;-53
2020/12/03 05:38:12;;;;;;;;;;;;;;;15.05;72.56;101646.78;4975205;28;917;-54
2020/12/03 05:40:37;;;;;;;;;;;;;;;15.06;72.94;101659.16;4975373;28;869;-53
2020/12/03 05:43:03;;;;;;;;;;;;;;;15.09;72.76;101674.97;4975429;28;1886;-53
2020/12/03 05:45:30;;;;;;;;;;;;;;;15.09;72.43;101657.19;4975158;28;1066;-53
2020/12/03 05:47:57;;;;;;;;;;;;;;;15.09;72.54;101667.84;4975399;28;867;-53
2020/12/03 05:50:35;;;;;;;;;;;;;;;15.11;72.39;101675.75;4975346;28;858;-53
2020/12/03 05:53:12;;;;;;;;;;;;;;;15.13;72.17;101667.66;4975023;28;853;-53
2020/12/03 05:55:37;;;;;;;;;;;;;;;15.10;72.12;101658.06;4974978;28;866;-53
2020/12/03 05:58:21;;;;;;;;;;;;;;;15.09;72.08;101664.31;4975251;28;823;-53
2020/12/03 06:00:47;;;;;;;;;;;;;;;15.10;72.29;101658.91;4974965;28;926;-53
2020/12/03 06:03:21;;;;;;;;;;;;;;;15.06;72.74;101669.81;4974850;28;1890;-53
2020/12/03 06:05:49;;;;;;;;;;;;;;;15.02;72.44;101669.16;4974705;28;872;-53
2020/12/03 06:08:33;;;;;;;;;;;;;;;15.04;72.46;101675.25;4975134;28;869;-53
2020/12/03 06:11:10;;;;;;;;;;;;;;;15.09;72.47;101678.50;4974884;28;814;-53
2020/12/03 06:13:48;;;;;;;;;;;;;;;15.07;72.51;101667.06;4975079;28;873;-53
2020/12/03 06:16:21;;;;;;;;;;;;;;;15.06;72.22;101670.69;4974915;28;1015;-53
2020/12/03 06:18:52;;;;;;;;;;;;;;;15.06;72.21;101652.03;4974784;28;896;-53
2020/12/03 06:21:20;;;;;;;;;;;;;;;15.08;72.55;101670.56;4974997;28;818;-53
2020/12/03 06:23:45;;;;;;;;;;;;;;;15.03;72.55;101668.19;4974886;28;1912;-53
2020/12/03 06:26:29;;;;;;;;;;;;;;;15.07;72.51;101674.22;4974806;28;932;-54
2020/12/03 06:29:02;;;;;;;;;;;;;;;15.04;72.16;101667.25;4974662;28;896;-53
2020/12/03 06:31:53;;;;;;;;;;;;;;;15.08;71.89;101667.91;4976266;28;872;-53
2020/12/03 06:34:21;;;;;;;;;;;;;;;15.07;72.53;101667.06;4963715;28;1341;-53
2020/12/03 06:36:55;;;;;;;;;;;;;;;15.04;72.45;101667.25;4978638;28;952;-54
2020/12/03 06:39:24;;;;;;;;;;;;;;;15.05;72.21;101676.94;4978780;28;829;-53
2020/12/03 06:41:49;;;;;;;;;;;;;;;15.03;72.07;101675.31;4978492;28;913;-53
2020/12/03 06:44:20;;;;;;;;;;;;;;;15.05;72.26;101673.44;4978829;28;2011;-53
2020/12/03 06:46:51;;;;;;;;;;;;;;;15.07;71.80;101669.72;4978709;28;881;-53
2020/12/03 06:49:16;;;;;;;;;;;;;;;15.05;72.15;101671.63;4978571;28;857;-53
2020/12/03 06:51:52;;;;;;;;;;;;;;;15.07;72.23;101671.53;4978527;28;834;-54
2020/12/03 06:54:36;;;;;;;;;;;;;;;15.02;72.35;101677.16;4978286;28;881;-53
2020/12/03 06:57:30;;;;;;;;;;;;;;;15.05;72.32;101668.09;4977819;28;1028;-53
2020/12/03 06:59:56;;;;;;;;;;;;;;;15.06;72.28;101678.69;4969969;28;1351;-53
2020/12/03 07:02:27;;;;;;;;;;;;;;;15.06;72.48;101676.03;4978281;28;1445;-54
2020/12/03 07:05:11;;;;;;;;;;;;;;;15.04;72.15;101675.25;4978366;28;1894;-53
2020/12/03 07:07:42;;;;;;;;;;;;;;;15.05;72.28;101666.28;4978043;28;873;-53
2020/12/03 07:10:10;;;;;;;;;;;;;;;15.03;72.19;101662.88;4983916;28;1381;-53
2020/12/03 07:12:45;;;;;;;;;;;;;;;15.03;72.52;101673.53;4997453;28;794;-53
2020/12/03 07:15:23;;;;;;;;;;;;;;;15.09;71.47;101673.16;4994036;28;3100;-54
2020/12/03 07:17:48;;;;;;;;;;;;;;;15.11;72.10;101668.59;4994619;28;1758;-52
2020/12/03 07:20:32;;;;;;;;;;;;;;;15.10;71.87;101687.38;4993943;28;1785;-54
2020/12/03 07:23:02;;;;;;;;;;;;;;;15.07;72.43;101680.38;4995400;28;1983;-53
2020/12/03 07:25:27;;;;;;;;;;;;;;;15.11;72.02;101667.75;4993947;28;1761;-53
2020/12/03 07:28:06;;;;;;;;;;;;;;;15.06;71.88;101673.34;4996405;28;1514;-53
2020/12/03 07:30:37;;;;;;;;;;;;;;;15.16;72.41;101676.34;4999063;28;1683;-54
2020/12/03 07:33:05;;;;;;;;;;;;;;;15.13;71.69;101667.66;4991597;28;1745;-53
2020/12/03 07:35:43;;;;;;;;;;;;;;;15.16;71.96;101679.03;4993231;28;1744;-53
2020/12/03 07:38:17;;;;;;;;;;;;;;;15.13;71.57;101683.66;4993974;28;1479;-54
2020/12/03 07:40:42;;;;;;;;;;;;;;;15.13;71.93;101691.66;4993077;28;1588;-53
2020/12/03 07:43:17;;;;;;;;;;;;;;;15.07;71.91;101706.16;4994474;28;1959;-53
2020/12/03 07:45:44;;;;;;;;;;;;;;;15.06;72.03;101694.66;4979765;28;1727;-54
2020/12/03 07:48:12;;;;;;;;;;;;;;;15.05;71.58;101698.25;4997491;28;1629;-54
2020/12/03 07:50:37;;;;;;;;;;;;;;;15.09;71.91;101697.13;4993181;28;1748;-53
2020/12/03 07:53:14;;;;;;;;;;;;;;;15.08;71.66;101690.09;4996732;28;1796;-53
2020/12/03 07:55:39;;;;;;;;;;;;;;;15.08;72.06;101674.13;4993563;28;1801;-53
2020/12/03 07:58:05;;;;;;;;;;;;;;;15.10;71.62;101674.91;4993870;28;1812;-53
2020/12/03 08:00:30;;;;;;;;;;;;;;;15.14;71.88;101685.34;4992504;28;1901;-53
2020/12/03 08:02:56;;;;;;;;;;;;;;;15.15;71.63;101681.75;4995619;28;1974;-53
2020/12/03 08:05:40;;;;;;;;;;;;;;;15.16;71.40;101688.78;4996265;28;2008;-53
2020/12/03 08:08:23;;;;;;;;;;;;;;;15.22;71.33;101694.66;4995093;28;2193;-53
2020/12/03 08:10:50;;;;;;;;;;;;;;;15.23;71.09;101687.50;5006378;28;1647;-53
2020/12/03 08:13:15;;;;;;;;;;;;;;;15.18;71.73;101686.91;5004192;28;1575;-53
2020/12/03 08:15:41;;;;;;;;;;;;;;;15.29;71.74;101684.50;4995891;28;1819;-53
2020/12/03 08:18:26;;;;;;;;;;;;;;;15.18;71.23;101687.78;5000794;28;1545;-53
2020/12/03 08:20:56;;;;;;;;;;;;;;;15.18;71.22;101678.91;4988513;28;1808;-54
2020/12/03 08:23:21;;;;;;;;;;;;;;;15.18;71.16;101687.78;4988020;28;1910;-56
2020/12/03 08:25:46;;;;;;;;;;;;;;;15.15;71.18;101692.41;4987358;28;1781;-53
2020/12/03 08:28:17;;;;;;;;;;;;;;;15.17;71.40;101687.88;4989463;28;1448;-53
2020/12/03 08:30:46;;;;;;;;;;;;;;;15.14;71.52;101677.38;4989476;28;1704;-53
2020/12/03 08:33:15;;;;;;;;;;;;;;;15.13;71.24;101673.00;4989138;28;1521;-53
2020/12/03 08:35:41;;;;;;;;;;;;;;;15.15;71.50;101673.78;4985192;28;1659;-54
2020/12/03 08:38:06;;;;;;;;;;;;;;;15.11;71.53;101665.94;4989588;28;1556;-54
2020/12/03 08:40:33;;;;;;;;;;;;;;;15.15;71.56;101676.44;4988395;28;1516;-54
2020/12/03 08:43:11;;;;;;;;;;;;;;;15.15;70.97;101649.78;4988400;28;1945;-53
2020/12/03 08:45:47;;;;;;;;;;;;;;;15.21;69.41;101662.75;4988802;28;1768;-53
2020/12/03 08:48:13;;;;;;;;;;;;;;;15.05;70.74;101633.47;4988239;28;1719;-54
2020/12/03 08:50:39;;;;;;;;;;;;;;;15.05;71.29;101652.97;4990077;28;1671;-53
2020/12/03 08:53:08;;;;;;;;;;;;;;;14.61;71.60;101648.38;4985409;28;1470;-53
2020/12/03 08:55:37;;;;;;;;;;;;;;;14.96;71.39;101642.88;4985807;28;1683;-53
2020/12/03 08:58:02;;;;;;;;;;;;;;;15.07;70.79;101647.56;4988550;28;1412;-53
2020/12/03 09:00:28;;;;;;;;;;;;;;;15.11;70.75;101644.63;4987819;28;1719;-53
2020/12/03 09:02:54;;;;;;;;;;;;;;;15.13;70.49;101630.38;4999188;28;1910;-53
2020/12/03 09:05:20;;;;;;;;;;;;;;;15.09;70.63;101635.00;4994923;28;1540;-54
2020/12/03 09:07:52;;;;;;;;;;;;;;;15.15;69.16;101641.81;4992322;28;1696;-53
2020/12/03 09:10:19;;;;;;;;;;;;;;;15.11;70.52;101625.97;4990343;28;1416;-53
2020/12/03 09:12:48;;;;;;;;;;;;;;;14.42;50.00;101642.28;4991208;28;1337;-53
2020/12/03 09:15:15;;;;;;;;;;;;;;;14.14;67.26;101630.50;5005074;28;1808;-51
2020/12/03 09:17:43;;;;;;;;;;;;;;;14.77;69.50;101634.19;4994514;28;1624;-52
2020/12/03 09:20:10;;;;;;;;;;;;;;;14.93;69.36;101645.69;5006462;28;1446;-53
2020/12/03 09:22:37;;;;;;;;;;;;;;;14.98;69.11;101617.00;4996070;28;1362;-53
2020/12/03 09:25:05;;;;;;;;;;;;;;;15.03;69.45;101630.91;4991960;28;1973;-53
2020/12/03 09:27:33;;;;;;;;;;;;;;;15.13;69.65;101625.03;4990434;28;1891;-52
2020/12/03 09:30:02;;;;;;;;;;;;;;;14.85;69.87;101621.31;4992076;28;1566;-52
2020/12/03 09:32:28;;;;;;;;;;;;;;;14.92;70.06;101620.00;4991936;28;1745;-52
2020/12/03 09:34:55;;;;;;;;;;;;;;;15.10;70.33;101628.75;5000897;28;1250;-52
2020/12/03 09:37:20;;;;;;;;;;;;;;;15.14;70.05;101614.31;5002659;28;1737;-52
2020/12/03 09:39:46;;;;;;;;;;;;;;;15.11;70.65;101607.34;4990724;28;1689;-52
2020/12/03 09:42:12;;;;;;;;;;;;;;;15.16;70.59;101620.41;4995448;28;1741;-52
2020/12/03 09:44:40;;;;;;;;;;;;;;;15.19;70.63;101616.69;4992161;28;1951;-52
2020/12/03 09:47:10;;;;;;;;;;;;;;;15.18;70.46;101601.63;4992478;28;1158;-52
2020/12/03 09:49:36;;;;;;;;;;;;;;;15.16;70.97;101603.53;5002182;28;1776;-53
2020/12/03 09:52:03;;;;;;;;;;;;;;;15.17;70.99;101594.63;4985618;28;1967;-52
2020/12/03 09:54:28;;;;;;;;;;;;;;;15.18;71.23;101604.31;4998919;28;1512;-52
2020/12/03 09:56:54;;;;;;;;;;;;;;;15.17;70.64;101599.94;4990303;28;1706;-52
2020/12/03 09:59:20;;;;;;;;;;;;;;;15.22;71.21;101606.72;4991578;28;1399;-51
2020/12/03 10:01:57;;;;;;;;;;;;;;;15.13;71.20;101577.94;4996866;28;1404;-52
2020/12/03 10:04:28;;;;;;;;;;;;;;;15.10;70.70;101575.47;4987940;28;1914;-51
2020/12/03 10:07:06;;;;;;;;;;;;;;;15.13;70.98;101571.75;4993988;28;1748;-52
2020/12/03 10:09:37;;;;;;;;;;;;;;;15.10;70.49;101584.31;4989754;28;1790;-51
2020/12/03 10:12:03;;;;;;;;;;;;;;;15.08;71.29;101586.22;4995966;28;1508;-51
2020/12/03 10:14:40;;;;;;;;;;;;;;;15.16;70.57;101572.44;4993917;28;1056;-52
2020/12/03 10:17:06;;;;;;;;;;;;;;;15.21;71.18;101566.84;4991063;28;1144;-51
2020/12/03 10:19:38;;;;;;;;;;;;;;;15.20;71.13;101562.44;4995157;28;2027;-50
2020/12/03 10:22:05;;;;;;;;;;;;;;;15.18;71.00;101545.69;4994004;28;2099;-51
2020/12/03 10:24:39;;;;;;;;;;;;;;;15.23;71.23;101556.94;4988024;28;1922;-51
2020/12/03 10:27:16;;;;;;;;;;;;;;;15.15;70.87;101536.09;4997065;28;2322;-51
2020/12/03 10:29:45;;;;;;;;;;;;;;;15.17;71.02;101534.19;4974289;28;1168;-53
2020/12/03 10:32:15;;;;;;;;;;;;;;;15.17;71.37;101531.53;4981237;28;1144;-53
2020/12/03 10:34:41;;;;;;;;;;;;;;;15.15;71.18;101522.75;4984908;28;1179;-52
2020/12/03 10:37:11;;;;;;;;;;;;;;;15.16;70.55;101523.63;4988237;28;1342;-53
2020/12/03 10:39:49;;;;;;;;;;;;;;;15.20;70.85;101531.34;4992056;28;896;-53
2020/12/03 10:42:16;;;;;;;;;;;;;;;15.33;70.22;101528.78;4992625;28;837;-52
2020/12/03 10:44:43;;;;;;;;;;;;;;;15.42;69.57;101533.56;4994161;28;1894;-52
2020/12/03 10:47:11;;;;;;;;;;;;;;;15.57;69.29;101533.59;4994195;28;774;-52
2020/12/03 10:49:38;;;;;;;;;;;;;;;15.56;69.27;101526.53;4993854;28;889;-53
2020/12/03 10:52:03;;;;;;;;;;;;;;;15.63;69.50;101519.88;4994069;28;885;-52
2020/12/03 10:54:31;;;;;;;;;;;;;;;15.70;70.19;101518.56;4994022;28;771;-52
2020/12/03 10:57:02;;;;;;;;;;;;;;;15.79;69.68;101507.31;4994078;28;830;-52
2020/12/03 10:59:38;;;;;;;;;;;;;;;15.87;69.89;101521.03;4993952;28;889;-52
2020/12/03 11:02:09;;;;;;;;;;;;;;;15.94;69.03;101520.66;4993634;28;1373;-52
2020/12/03 11:04:36;;;;;;;;;;;;;;;16.03;68.69;101525.41;4993934;28;1898;-52
2020/12/03 11:07:08;;;;;;;;;;;;;;;16.07;69.13;101513.56;4993729;28;959;-52
2020/12/03 11:09:34;;;;;;;;;;;;;;;16.13;68.78;101489.16;4994403;28;1518;-52
2020/12/03 11:11:59;;;;;;;;;;;;;;;16.22;69.14;101496.59;4994001;28;787;-53
2020/12/03 11:14:30;;;;;;;;;;;;;;;16.32;68.71;101504.84;4993756;28;845;-53
2020/12/03 11:16:57;;;;;;;;;;;;;;;16.42;68.80;101507.78;4994230;28;1012;-52
2020/12/03 11:19:23;;;;;;;;;;;;;;;16.46;67.70;101498.63;4997278;28;923;-52
2020/12/03 11:22:04;;;;;;;;;;;;;;;16.54;67.89;101498.13;4997553;28;791;-53
2020/12/03 11:24:42;;;;;;;;;;;;;;;16.64;67.32;101505.41;5012282;28;1976;-52
2020/12/03 11:27:08;;;;;;;;;;;;;;;16.68;67.41;101482.03;4997092;28;903;-52
2020/12/03 11:29:34;;;;;;;;;;;;;;;16.75;67.55;101495.81;4997858;28;1599;-52
2020/12/03 11:31:59;;;;;;;;;;;;;;;16.85;68.14;101512.97;4997362;28;933;-52
2020/12/03 11:34:37;;;;;;;;;;;;;;;16.89;67.27;101493.97;4997340;28;928;-52
2020/12/03 11:37:03;;;;;;;;;;;;;;;16.92;66.82;101498.25;4997284;28;881;-52
2020/12/03 11:39:29;;;;;;;;;;;;;;;17.02;68.01;101498.47;4997179;28;861;-51
2020/12/03 11:42:38;;;;;;;;;;;;;;;17.01;67.27;101492.28;4997148;28;870;-51
2020/12/03 11:45:31;;;;;;;;;;;;;;;17.08;66.97;101493.56;4996768;28;1938;-52
2020/12/03 11:50:24;;;;;;;;;;;;;;;17.21;67.29;101490.03;4997245;28;841;-52
2020/12/03 11:52:50;;;;;;;;;;;;;;;17.25;67.48;101496.91;4996989;28;868;-52
2020/12/03 11:55:16;;;;;;;;;;;;;;;17.25;67.48;101495.06;4997313;28;873;-52
2020/12/03 11:57:41;;;;;;;;;;;;;;;17.24;67.51;101480.00;4996921;28;813;-52
2020/12/03 12:00:14;;;;;;;;;;;;;;;17.24;67.37;101471.13;4996862;28;865;-52
2020/12/03 12:02:39;;;;;;;;;;;;;;;17.27;67.08;101481.63;4996654;28;1432;-53
2020/12/03 12:05:08;;;;;;;;;;;;;;;17.29;67.48;101490.38;4996783;28;1890;-52
2020/12/03 12:07:38;;;;;;;;;;;;;;;17.32;66.79;101484.81;4996536;28;870;-52
2020/12/03 12:12:31;;;;;;;;;;;;;;;17.26;66.66;101479.88;4996805;28;948;-52
2020/12/03 12:14:56;;;;;;;;;;;;;;;17.19;67.17;101476.78;4996232;28;888;-52
2020/12/03 12:17:21;;;;;;;;;;;;;;;17.20;67.38;101483.00;4996142;28;1369;-52
2020/12/03 12:19:49;;;;;;;;;;;;;;;17.16;68.11;101478.81;4996231;28;810;-52
2020/12/03 12:22:15;;;;;;;;;;;;;;;17.14;67.29;101470.91;4996464;28;841;-52
2020/12/03 12:24:41;;;;;;;;;;;;;;;17.15;67.78;101471.75;4996314;28;1910;-52
2020/12/03 12:27:06;;;;;;;;;;;;;;;17.13;68.06;101468.31;4996359;28;837;-52
2020/12/03 12:29:31;;;;;;;;;;;;;;;17.10;68.21;101478.28;4995722;28;505;-52
2020/12/03 12:31:57;;;;;;;;;;;;;;;17.08;67.13;101461.47;4995986;28;830;-52
2020/12/03 12:34:23;;;;;;;;;;;;;;;17.02;68.20;101456.56;4996644;28;1566;-52
2020/12/03 12:36:48;;;;;;;;;;;;;;;16.97;67.53;101466.72;4996189;28;845;-52
2020/12/03 12:39:14;;;;;;;;;;;;;;;16.96;67.36;101470.34;4995772;28;1046;-52
2020/12/03 12:41:39;;;;;;;;;;;;;;;16.95;68.33;101465.97;4996122;28;865;-52
2020/12/03 12:44:04;;;;;;;;;;;;;;;16.90;68.32;101458.25;4995665;28;1885;-53
2020/12/03 12:46:30;;;;;;;;;;;;;;;16.94;68.56;101452.72;4996036;28;881;-53
2020/12/03 12:48:55;;;;;;;;;;;;;;;16.95;68.11;101454.41;4994467;28;1024;-53
2020/12/03 12:51:20;;;;;;;;;;;;;;;16.88;67.67;101467.34;4995880;28;865;-52
2020/12/03 12:53:45;;;;;;;;;;;;;;;16.98;68.41;101455.06;4995883;28;857;-52
2020/12/03 12:56:11;;;;;;;;;;;;;;;16.95;68.49;101449.97;4995866;28;893;-52
2020/12/03 12:58:37;;;;;;;;;;;;;;;16.98;67.60;101440.88;4995454;28;1018;-52
2020/12/03 13:01:03;;;;;;;;;;;;;;;16.98;68.28;101439.03;4995783;28;794;-52
2020/12/03 13:03:28;;;;;;;;;;;;;;;17.00;68.19;101442.47;4995192;28;1890;-52
2020/12/03 13:05:53;;;;;;;;;;;;;;;16.96;67.94;101432.94;4995733;28;862;-52
2020/12/03 13:08:19;;;;;;;;;;;;;;;17.01;67.84;101432.63;4995309;28;926;-53